sensor_id;sensor_type;location;lat;lon;timestamp;P1;durP1;ratioP1;P2;durP2;ratioP2
12059;SDS011;6091;51.432;6.880;2023-02-01T00:00:59;0.40;;;0.40;;
12059;SDS011;6091;51.432;6.880;2023-02-01T00:03:31;0.40;;;0.40;;
12059;SDS011;6091;51.432;6.880;2023-02-01T00:05:59;0.47;;;0.45;;
12059;SDS011;6091;51.432;6.880;2023-02-01T00:08:26;0.40;;;0.40;;
12059;SDS011;6091;51.432;6.880;2023-02-01T00:10:57;0.50;;;0.50;;
12059;SDS011;6091;51.432;6.880;2023-02-01T00:13:34;0.43;;;0.43;;
12059;SDS011;6091;51.432;6.880;2023-02-01T00:16:13;0.47;;;0.47;;
12059;SDS011;6091;51.432;6.880;2023-02-01T00:18:45;0.50;;;0.50;;
12059;SDS011;6091;51.432;6.880;2023-02-01T00:21:16;0.38;;;0.38;;
12059;SDS011;6091;51.432;6.880;2023-02-01T00:23:45;0.40;;;0.40;;
12059;SDS011;6091;51.432;6.880;2023-02-01T00:26:14;0.50;;;0.40;;
12059;SDS011;6091;51.432;6.880;2023-02-01T00:28:44;0.30;;;0.30;;
12059;SDS011;6091;51.432;6.880;2023-02-01T00:31:12;0.45;;;0.40;;
12059;SDS011;6091;51.432;6.880;2023-02-01T00:33:39;0.30;;;0.30;;
12059;SDS011;6091;51.432;6.880;2023-02-01T00:36:06;0.50;;;0.50;;
12059;SDS011;6091;51.432;6.880;2023-02-01T00:38:36;0.40;;;0.40;;
12059;SDS011;6091;51.432;6.880;2023-02-01T00:41:10;0.40;;;0.40;;
12059;SDS011;6091;51.432;6.880;2023-02-01T00:43:40;0.40;;;0.40;;
12059;SDS011;6091;51.432;6.880;2023-02-01T00:46:08;0.40;;;0.40;;
12059;SDS011;6091;51.432;6.880;2023-02-01T00:48:37;0.40;;;0.40;;
12059;SDS011;6091;51.432;6.880;2023-02-01T00:51:11;0.40;;;0.40;;
12059;SDS011;6091;51.432;6.880;2023-02-01T00:53:41;0.38;;;0.38;;
12059;SDS011;6091;51.432;6.880;2023-02-01T00:56:09;0.40;;;0.40;;
12059;SDS011;6091;51.432;6.880;2023-02-01T00:58:36;0.57;;;0.40;;
12059;SDS011;6091;51.432;6.880;2023-02-01T01:03:38;0.30;;;0.30;;
12059;SDS011;6091;51.432;6.880;2023-02-01T01:06:10;0.30;;;0.30;;
12059;SDS011;6091;51.432;6.880;2023-02-01T01:08:40;0.32;;;0.32;;
12059;SDS011;6091;51.432;6.880;2023-02-01T01:11:09;0.30;;;0.30;;
12059;SDS011;6091;51.432;6.880;2023-02-01T01:13:42;0.50;;;0.40;;
12059;SDS011;6091;51.432;6.880;2023-02-01T01:16:12;0.30;;;0.30;;
12059;SDS011;6091;51.432;6.880;2023-02-01T01:18:40;0.40;;;0.40;;
12059;SDS011;6091;51.432;6.880;2023-02-01T01:21:09;0.40;;;0.40;;
12059;SDS011;6091;51.432;6.880;2023-02-01T01:23:39;0.30;;;0.30;;
12059;SDS011;6091;51.432;6.880;2023-02-01T01:26:08;0.40;;;0.40;;
12059;SDS011;6091;51.432;6.880;2023-02-01T01:28:39;0.50;;;0.40;;
12059;SDS011;6091;51.432;6.880;2023-02-01T01:31:10;0.70;;;0.63;;
12059;SDS011;6091;51.432;6.880;2023-02-01T01:33:40;0.45;;;0.40;;
12059;SDS011;6091;51.432;6.880;2023-02-01T01:36:08;0.50;;;0.50;;
12059;SDS011;6091;51.432;6.880;2023-02-01T01:38:41;0.50;;;0.30;;
12059;SDS011;6091;51.432;6.880;2023-02-01T01:41:11;0.40;;;0.40;;
12059;SDS011;6091;51.432;6.880;2023-02-01T01:43:55;1.13;;;0.40;;
12059;SDS011;6091;51.432;6.880;2023-02-01T01:46:29;0.60;;;0.57;;
12059;SDS011;6091;51.432;6.880;2023-02-01T01:49:08;0.40;;;0.40;;
12059;SDS011;6091;51.432;6.880;2023-02-01T01:51:42;0.50;;;0.40;;
12059;SDS011;6091;51.432;6.880;2023-02-01T01:54:18;0.50;;;0.32;;
12059;SDS011;6091;51.432;6.880;2023-02-01T01:56:52;0.35;;;0.30;;
12059;SDS011;6091;51.432;6.880;2023-02-01T01:59:26;0.40;;;0.40;;
12059;SDS011;6091;51.432;6.880;2023-02-01T02:01:54;0.60;;;0.35;;
12059;SDS011;6091;51.432;6.880;2023-02-01T02:04:22;0.45;;;0.45;;
12059;SDS011;6091;51.432;6.880;2023-02-01T02:07:04;0.43;;;0.43;;
12059;SDS011;6091;51.432;6.880;2023-02-01T02:09:42;0.30;;;0.30;;
12059;SDS011;6091;51.432;6.880;2023-02-01T02:12:24;0.40;;;0.40;;
12059;SDS011;6091;51.432;6.880;2023-02-01T02:14:51;0.55;;;0.38;;
12059;SDS011;6091;51.432;6.880;2023-02-01T02:32:44;0.45;;;0.45;;
12059;SDS011;6091;51.432;6.880;2023-02-01T02:38:23;0.40;;;0.40;;
12059;SDS011;6091;51.432;6.880;2023-02-01T02:44:08;0.30;;;0.30;;
12059;SDS011;6091;51.432;6.880;2023-02-01T02:47:03;0.40;;;0.40;;
12059;SDS011;6091;51.432;6.880;2023-02-01T02:50:12;0.30;;;0.30;;
12059;SDS011;6091;51.432;6.880;2023-02-01T02:56:12;0.30;;;0.30;;
12059;SDS011;6091;51.432;6.880;2023-02-01T02:58:59;0.30;;;0.30;;
12059;SDS011;6091;51.432;6.880;2023-02-01T03:01:48;0.40;;;0.40;;
12059;SDS011;6091;51.432;6.880;2023-02-01T03:04:34;0.50;;;0.50;;
12059;SDS011;6091;51.432;6.880;2023-02-01T03:08:03;0.38;;;0.38;;
12059;SDS011;6091;51.432;6.880;2023-02-01T03:10:32;0.63;;;0.52;;
12059;SDS011;6091;51.432;6.880;2023-02-01T03:16:23;0.40;;;0.40;;
12059;SDS011;6091;51.432;6.880;2023-02-01T03:21:43;0.63;;;0.40;;
12059;SDS011;6091;51.432;6.880;2023-02-01T03:24:23;0.40;;;0.40;;
12059;SDS011;6091;51.432;6.880;2023-02-01T03:27:17;0.25;;;0.25;;
12059;SDS011;6091;51.432;6.880;2023-02-01T03:29:59;0.40;;;0.40;;
12059;SDS011;6091;51.432;6.880;2023-02-01T03:32:37;0.40;;;0.40;;
12059;SDS011;6091;51.432;6.880;2023-02-01T03:35:33;0.40;;;0.40;;
12059;SDS011;6091;51.432;6.880;2023-02-01T03:40:52;0.55;;;0.40;;
12059;SDS011;6091;51.432;6.880;2023-02-01T03:43:24;0.50;;;0.50;;
12059;SDS011;6091;51.432;6.880;2023-02-01T03:46:00;0.50;;;0.50;;
12059;SDS011;6091;51.432;6.880;2023-02-01T03:48:35;0.30;;;0.30;;
12059;SDS011;6091;51.432;6.880;2023-02-01T03:51:04;0.52;;;0.40;;
12059;SDS011;6091;51.432;6.880;2023-02-01T03:53:33;0.47;;;0.40;;
12059;SDS011;6091;51.432;6.880;2023-02-01T03:56:03;0.40;;;0.40;;
12059;SDS011;6091;51.432;6.880;2023-02-01T03:58:32;0.70;;;0.50;;
12059;SDS011;6091;51.432;6.880;2023-02-01T04:00:59;0.50;;;0.50;;
12059;SDS011;6091;51.432;6.880;2023-02-01T04:03:27;0.65;;;0.50;;
12059;SDS011;6091;51.432;6.880;2023-02-01T04:05:55;0.40;;;0.40;;
12059;SDS011;6091;51.432;6.880;2023-02-01T04:08:22;0.35;;;0.30;;
12059;SDS011;6091;51.432;6.880;2023-02-01T04:10:50;0.45;;;0.40;;
12059;SDS011;6091;51.432;6.880;2023-02-01T04:13:17;0.40;;;0.40;;
12059;SDS011;6091;51.432;6.880;2023-02-01T04:15:44;0.38;;;0.38;;
12059;SDS011;6091;51.432;6.880;2023-02-01T04:18:15;0.50;;;0.40;;
12059;SDS011;6091;51.432;6.880;2023-02-01T04:20:43;0.50;;;0.50;;
12059;SDS011;6091;51.432;6.880;2023-02-01T04:23:11;0.47;;;0.45;;
12059;SDS011;6091;51.432;6.880;2023-02-01T04:25:37;0.30;;;0.30;;
12059;SDS011;6091;51.432;6.880;2023-02-01T04:28:04;0.40;;;0.40;;
12059;SDS011;6091;51.432;6.880;2023-02-01T04:30:33;0.40;;;0.40;;
12059;SDS011;6091;51.432;6.880;2023-02-01T04:33:00;0.50;;;0.50;;
12059;SDS011;6091;51.432;6.880;2023-02-01T04:35:29;0.65;;;0.40;;
12059;SDS011;6091;51.432;6.880;2023-02-01T04:37:56;0.43;;;0.43;;
12059;SDS011;6091;51.432;6.880;2023-02-01T04:40:23;0.50;;;0.40;;
12059;SDS011;6091;51.432;6.880;2023-02-01T04:42:51;0.43;;;0.40;;
12059;SDS011;6091;51.432;6.880;2023-02-01T04:45:18;0.60;;;0.40;;
12059;SDS011;6091;51.432;6.880;2023-02-01T04:47:44;0.50;;;0.50;;
12059;SDS011;6091;51.432;6.880;2023-02-01T04:50:12;0.65;;;0.40;;
12059;SDS011;6091;51.432;6.880;2023-02-01T04:52:39;0.98;;;0.60;;
12059;SDS011;6091;51.432;6.880;2023-02-01T04:55:06;0.90;;;0.50;;
12059;SDS011;6091;51.432;6.880;2023-02-01T04:57:34;0.65;;;0.45;;
12059;SDS011;6091;51.432;6.880;2023-02-01T05:00:01;0.45;;;0.40;;
12059;SDS011;6091;51.432;6.880;2023-02-01T05:02:28;0.68;;;0.68;;
12059;SDS011;6091;51.432;6.880;2023-02-01T05:04:55;0.40;;;0.40;;
12059;SDS011;6091;51.432;6.880;2023-02-01T05:07:23;0.50;;;0.47;;
12059;SDS011;6091;51.432;6.880;2023-02-01T05:09:50;0.40;;;0.40;;
12059;SDS011;6091;51.432;6.880;2023-02-01T05:12:17;0.47;;;0.47;;
12059;SDS011;6091;51.432;6.880;2023-02-01T05:15:02;0.45;;;0.38;;
12059;SDS011;6091;51.432;6.880;2023-02-01T05:17:30;0.30;;;0.30;;
12059;SDS011;6091;51.432;6.880;2023-02-01T05:19:57;0.40;;;0.40;;
12059;SDS011;6091;51.432;6.880;2023-02-01T05:22:24;0.47;;;0.47;;
12059;SDS011;6091;51.432;6.880;2023-02-01T05:24:51;0.40;;;0.30;;
12059;SDS011;6091;51.432;6.880;2023-02-01T05:27:18;0.40;;;0.40;;
12059;SDS011;6091;51.432;6.880;2023-02-01T05:29:45;0.63;;;0.50;;
12059;SDS011;6091;51.432;6.880;2023-02-01T05:32:12;0.70;;;0.70;;
12059;SDS011;6091;51.432;6.880;2023-02-01T05:34:48;0.75;;;0.50;;
12059;SDS011;6091;51.432;6.880;2023-02-01T05:37:15;0.50;;;0.50;;
12059;SDS011;6091;51.432;6.880;2023-02-01T05:39:42;0.60;;;0.60;;
12059;SDS011;6091;51.432;6.880;2023-02-01T05:42:09;0.52;;;0.50;;
12059;SDS011;6091;51.432;6.880;2023-02-01T05:44:36;0.60;;;0.50;;
12059;SDS011;6091;51.432;6.880;2023-02-01T05:47:03;0.60;;;0.52;;
12059;SDS011;6091;51.432;6.880;2023-02-01T05:49:30;0.50;;;0.40;;
12059;SDS011;6091;51.432;6.880;2023-02-01T05:51:57;0.80;;;0.57;;
12059;SDS011;6091;51.432;6.880;2023-02-01T05:54:25;0.65;;;0.40;;
12059;SDS011;6091;51.432;6.880;2023-02-01T05:56:52;0.32;;;0.32;;
12059;SDS011;6091;51.432;6.880;2023-02-01T05:59:20;0.45;;;0.40;;
12059;SDS011;6091;51.432;6.880;2023-02-01T06:01:47;0.47;;;0.47;;
12059;SDS011;6091;51.432;6.880;2023-02-01T06:04:14;0.50;;;0.50;;
12059;SDS011;6091;51.432;6.880;2023-02-01T06:06:41;0.52;;;0.50;;
12059;SDS011;6091;51.432;6.880;2023-02-01T06:09:08;0.40;;;0.40;;
12059;SDS011;6091;51.432;6.880;2023-02-01T06:11:35;0.40;;;0.40;;
12059;SDS011;6091;51.432;6.880;2023-02-01T06:14:02;0.40;;;0.40;;
12059;SDS011;6091;51.432;6.880;2023-02-01T06:16:29;0.50;;;0.50;;
12059;SDS011;6091;51.432;6.880;2023-02-01T06:18:56;0.57;;;0.57;;
12059;SDS011;6091;51.432;6.880;2023-02-01T06:21:23;1.15;;;0.60;;
12059;SDS011;6091;51.432;6.880;2023-02-01T06:23:51;0.60;;;0.60;;
12059;SDS011;6091;51.432;6.880;2023-02-01T06:26:19;0.75;;;0.50;;
12059;SDS011;6091;51.432;6.880;2023-02-01T06:28:46;0.73;;;0.60;;
12059;SDS011;6091;51.432;6.880;2023-02-01T06:31:16;1.52;;;0.70;;
12059;SDS011;6091;51.432;6.880;2023-02-01T06:33:44;0.75;;;0.57;;
12059;SDS011;6091;51.432;6.880;2023-02-01T06:36:13;0.40;;;0.40;;
12059;SDS011;6091;51.432;6.880;2023-02-01T06:38:41;0.60;;;0.43;;
12059;SDS011;6091;51.432;6.880;2023-02-01T06:41:08;0.77;;;0.60;;
12059;SDS011;6091;51.432;6.880;2023-02-01T06:43:36;0.50;;;0.47;;
12059;SDS011;6091;51.432;6.880;2023-02-01T06:46:05;0.52;;;0.50;;
12059;SDS011;6091;51.432;6.880;2023-02-01T06:48:37;0.40;;;0.40;;
12059;SDS011;6091;51.432;6.880;2023-02-01T06:51:05;0.75;;;0.50;;
12059;SDS011;6091;51.432;6.880;2023-02-01T06:53:32;1.02;;;0.50;;
12059;SDS011;6091;51.432;6.880;2023-02-01T06:56:03;0.73;;;0.73;;
12059;SDS011;6091;51.432;6.880;2023-02-01T06:58:31;0.60;;;0.60;;
12059;SDS011;6091;51.432;6.880;2023-02-01T07:01:06;0.45;;;0.45;;
12059;SDS011;6091;51.432;6.880;2023-02-01T07:03:38;1.40;;;0.50;;
12059;SDS011;6091;51.432;6.880;2023-02-01T07:06:06;0.40;;;0.40;;
12059;SDS011;6091;51.432;6.880;2023-02-01T07:08:36;0.45;;;0.45;;
12059;SDS011;6091;51.432;6.880;2023-02-01T07:11:05;0.50;;;0.50;;
12059;SDS011;6091;51.432;6.880;2023-02-01T07:13:36;2.03;;;0.43;;
12059;SDS011;6091;51.432;6.880;2023-02-01T07:16:06;0.73;;;0.50;;
12059;SDS011;6091;51.432;6.880;2023-02-01T07:18:38;0.63;;;0.50;;
12059;SDS011;6091;51.432;6.880;2023-02-01T07:21:05;1.17;;;0.70;;
12059;SDS011;6091;51.432;6.880;2023-02-01T07:23:33;0.95;;;0.40;;
12059;SDS011;6091;51.432;6.880;2023-02-01T07:26:02;1.05;;;0.50;;
12059;SDS011;6091;51.432;6.880;2023-02-01T07:28:32;0.90;;;0.68;;
12059;SDS011;6091;51.432;6.880;2023-02-01T07:31:05;0.45;;;0.45;;
12059;SDS011;6091;51.432;6.880;2023-02-01T07:33:34;1.15;;;0.40;;
12059;SDS011;6091;51.432;6.880;2023-02-01T07:36:02;0.93;;;0.52;;
12059;SDS011;6091;51.432;6.880;2023-02-01T07:38:32;1.00;;;0.60;;
12059;SDS011;6091;51.432;6.880;2023-02-01T07:41:00;0.80;;;0.65;;
12059;SDS011;6091;51.432;6.880;2023-02-01T07:43:31;1.13;;;0.65;;
12059;SDS011;6091;51.432;6.880;2023-02-01T07:46:02;1.65;;;0.70;;
12059;SDS011;6091;51.432;6.880;2023-02-01T07:48:33;3.33;;;0.70;;
12059;SDS011;6091;51.432;6.880;2023-02-01T07:51:08;1.35;;;0.82;;
12059;SDS011;6091;51.432;6.880;2023-02-01T07:53:38;1.52;;;0.75;;
12059;SDS011;6091;51.432;6.880;2023-02-01T07:56:14;3.60;;;0.73;;
12059;SDS011;6091;51.432;6.880;2023-02-01T07:58:47;1.10;;;0.63;;
12059;SDS011;6091;51.432;6.880;2023-02-01T08:01:20;3.38;;;0.80;;
12059;SDS011;6091;51.432;6.880;2023-02-01T08:03:54;2.42;;;1.10;;
12059;SDS011;6091;51.432;6.880;2023-02-01T08:06:32;0.98;;;0.68;;
12059;SDS011;6091;51.432;6.880;2023-02-01T08:09:01;1.35;;;0.90;;
12059;SDS011;6091;51.432;6.880;2023-02-01T08:11:29;2.20;;;0.90;;
12059;SDS011;6091;51.432;6.880;2023-02-01T08:13:57;1.80;;;0.95;;
12059;SDS011;6091;51.432;6.880;2023-02-01T08:16:25;4.03;;;1.20;;
12059;SDS011;6091;51.432;6.880;2023-02-01T08:18:54;3.25;;;1.45;;
12059;SDS011;6091;51.432;6.880;2023-02-01T08:21:29;5.15;;;2.92;;
12059;SDS011;6091;51.432;6.880;2023-02-01T08:24:03;5.78;;;2.95;;
12059;SDS011;6091;51.432;6.880;2023-02-01T08:26:40;5.78;;;2.92;;
12059;SDS011;6091;51.432;6.880;2023-02-01T08:29:09;4.93;;;2.25;;
12059;SDS011;6091;51.432;6.880;2023-02-01T08:31:39;3.00;;;1.58;;
12059;SDS011;6091;51.432;6.880;2023-02-01T08:34:10;2.40;;;1.40;;
12059;SDS011;6091;51.432;6.880;2023-02-01T08:36:39;2.55;;;1.42;;
12059;SDS011;6091;51.432;6.880;2023-02-01T08:39:08;3.42;;;1.70;;
12059;SDS011;6091;51.432;6.880;2023-02-01T08:41:37;4.00;;;1.20;;
12059;SDS011;6091;51.432;6.880;2023-02-01T08:44:07;3.38;;;1.23;;
12059;SDS011;6091;51.432;6.880;2023-02-01T08:46:42;3.88;;;1.35;;
12059;SDS011;6091;51.432;6.880;2023-02-01T08:49:08;2.63;;;1.30;;
12059;SDS011;6091;51.432;6.880;2023-02-01T08:51:35;3.25;;;1.38;;
12059;SDS011;6091;51.432;6.880;2023-02-01T08:54:03;2.55;;;1.20;;
12059;SDS011;6091;51.432;6.880;2023-02-01T08:56:36;2.83;;;1.30;;
12059;SDS011;6091;51.432;6.880;2023-02-01T08:59:06;2.92;;;1.13;;
12059;SDS011;6091;51.432;6.880;2023-02-01T09:01:36;3.72;;;1.13;;
12059;SDS011;6091;51.432;6.880;2023-02-01T09:04:06;2.67;;;1.50;;
12059;SDS011;6091;51.432;6.880;2023-02-01T09:06:33;2.22;;;1.10;;
12059;SDS011;6091;51.432;6.880;2023-02-01T09:09:00;3.00;;;1.00;;
12059;SDS011;6091;51.432;6.880;2023-02-01T09:11:36;1.83;;;0.80;;
12059;SDS011;6091;51.432;6.880;2023-02-01T09:14:03;3.22;;;1.20;;
12059;SDS011;6091;51.432;6.880;2023-02-01T09:16:33;4.03;;;1.17;;
12059;SDS011;6091;51.432;6.880;2023-02-01T09:19:04;4.43;;;1.48;;
12059;SDS011;6091;51.432;6.880;2023-02-01T09:21:51;3.47;;;1.00;;
12059;SDS011;6091;51.432;6.880;2023-02-01T09:24:18;3.25;;;1.08;;
12059;SDS011;6091;51.432;6.880;2023-02-01T09:26:48;1.23;;;0.90;;
12059;SDS011;6091;51.432;6.880;2023-02-01T09:29:15;2.03;;;0.68;;
12059;SDS011;6091;51.432;6.880;2023-02-01T09:31:45;4.30;;;1.00;;
12059;SDS011;6091;51.432;6.880;2023-02-01T09:34:28;2.55;;;1.10;;
12059;SDS011;6091;51.432;6.880;2023-02-01T09:36:56;1.88;;;1.10;;
12059;SDS011;6091;51.432;6.880;2023-02-01T09:39:23;2.03;;;1.15;;
12059;SDS011;6091;51.432;6.880;2023-02-01T09:47:25;4.57;;;1.27;;
12059;SDS011;6091;51.432;6.880;2023-02-01T09:55:36;3.20;;;1.00;;
12059;SDS011;6091;51.432;6.880;2023-02-01T09:58:20;2.47;;;0.88;;
12059;SDS011;6091;51.432;6.880;2023-02-01T10:00:57;2.13;;;1.07;;
12059;SDS011;6091;51.432;6.880;2023-02-01T10:03:27;0.90;;;0.80;;
12059;SDS011;6091;51.432;6.880;2023-02-01T10:06:21;1.85;;;0.70;;
12059;SDS011;6091;51.432;6.880;2023-02-01T10:14:49;5.15;;;1.00;;
12059;SDS011;6091;51.432;6.880;2023-02-01T10:20:47;4.85;;;1.10;;
12059;SDS011;6091;51.432;6.880;2023-02-01T10:23:41;1.92;;;0.77;;
12059;SDS011;6091;51.432;6.880;2023-02-01T10:26:19;4.95;;;1.40;;
12059;SDS011;6091;51.432;6.880;2023-02-01T10:28:49;1.77;;;1.00;;
12059;SDS011;6091;51.432;6.880;2023-02-01T10:31:44;2.42;;;0.85;;
12059;SDS011;6091;51.432;6.880;2023-02-01T10:34:22;2.15;;;0.98;;
12059;SDS011;6091;51.432;6.880;2023-02-01T10:37:39;2.25;;;0.80;;
12059;SDS011;6091;51.432;6.880;2023-02-01T10:40:02;2.60;;;0.85;;
12059;SDS011;6091;51.432;6.880;2023-02-01T10:42:49;2.60;;;1.00;;
12059;SDS011;6091;51.432;6.880;2023-02-01T10:45:23;2.97;;;0.88;;
12059;SDS011;6091;51.432;6.880;2023-02-01T10:47:54;3.17;;;0.88;;
12059;SDS011;6091;51.432;6.880;2023-02-01T10:50:35;1.63;;;0.77;;
12059;SDS011;6091;51.432;6.880;2023-02-01T10:56:29;3.45;;;2.35;;
12059;SDS011;6091;51.432;6.880;2023-02-01T10:59:03;4.22;;;3.17;;
12059;SDS011;6091;51.432;6.880;2023-02-01T11:01:43;7.70;;;3.22;;
12059;SDS011;6091;51.432;6.880;2023-02-01T11:04:18;8.60;;;3.53;;
12059;SDS011;6091;51.432;6.880;2023-02-01T11:06:47;7.97;;;3.47;;
12059;SDS011;6091;51.432;6.880;2023-02-01T11:09:24;6.90;;;3.30;;
12059;SDS011;6091;51.432;6.880;2023-02-01T11:12:01;4.30;;;2.90;;
12059;SDS011;6091;51.432;6.880;2023-02-01T11:17:26;5.13;;;2.75;;
12059;SDS011;6091;51.432;6.880;2023-02-01T11:20:01;6.45;;;3.20;;
12059;SDS011;6091;51.432;6.880;2023-02-01T11:22:45;6.80;;;2.80;;
12059;SDS011;6091;51.432;6.880;2023-02-01T11:25:17;6.10;;;2.45;;
12059;SDS011;6091;51.432;6.880;2023-02-01T11:27:45;6.70;;;2.15;;
12059;SDS011;6091;51.432;6.880;2023-02-01T11:30:33;4.93;;;2.15;;
12059;SDS011;6091;51.432;6.880;2023-02-01T11:33:07;4.40;;;1.77;;
12059;SDS011;6091;51.432;6.880;2023-02-01T11:35:49;4.63;;;2.00;;
12059;SDS011;6091;51.432;6.880;2023-02-01T11:38:23;3.35;;;2.10;;
12059;SDS011;6091;51.432;6.880;2023-02-01T11:43:59;5.75;;;2.40;;
12059;SDS011;6091;51.432;6.880;2023-02-01T11:46:41;7.15;;;1.90;;
12059;SDS011;6091;51.432;6.880;2023-02-01T11:49:23;6.53;;;1.90;;
12059;SDS011;6091;51.432;6.880;2023-02-01T11:52:02;3.88;;;1.42;;
12059;SDS011;6091;51.432;6.880;2023-02-01T12:19:11;3.65;;;1.63;;
12059;SDS011;6091;51.432;6.880;2023-02-01T12:27:56;2.63;;;1.40;;
12059;SDS011;6091;51.432;6.880;2023-02-01T12:36:46;3.30;;;1.30;;
12059;SDS011;6091;51.432;6.880;2023-02-01T12:44:48;2.03;;;1.15;;
12059;SDS011;6091;51.432;6.880;2023-02-01T12:47:41;2.83;;;1.17;;
12059;SDS011;6091;51.432;6.880;2023-02-01T12:50:32;1.80;;;1.13;;
12059;SDS011;6091;51.432;6.880;2023-02-01T12:53:15;1.40;;;0.80;;
12059;SDS011;6091;51.432;6.880;2023-02-01T12:56:18;1.85;;;0.88;;
12059;SDS011;6091;51.432;6.880;2023-02-01T12:59:19;1.23;;;1.00;;
12059;SDS011;6091;51.432;6.880;2023-02-01T13:02:04;3.33;;;0.98;;
12059;SDS011;6091;51.432;6.880;2023-02-01T13:07:30;1.52;;;1.00;;
12059;SDS011;6091;51.432;6.880;2023-02-01T13:11:03;1.65;;;1.10;;
12059;SDS011;6091;51.432;6.880;2023-02-01T13:13:22;1.50;;;1.10;;
12059;SDS011;6091;51.432;6.880;2023-02-01T13:19:00;1.60;;;1.00;;
12059;SDS011;6091;51.432;6.880;2023-02-01T13:21:53;1.38;;;0.90;;
12059;SDS011;6091;51.432;6.880;2023-02-01T13:24:46;1.63;;;0.75;;
12059;SDS011;6091;51.432;6.880;2023-02-01T13:27:43;1.02;;;0.93;;
12059;SDS011;6091;51.432;6.880;2023-02-01T13:30:16;1.73;;;0.95;;
12059;SDS011;6091;51.432;6.880;2023-02-01T13:43:16;1.02;;;0.70;;
12059;SDS011;6091;51.432;6.880;2023-02-01T13:45:33;0.60;;;0.50;;
12059;SDS011;6091;51.432;6.880;2023-02-01T13:48:14;1.05;;;0.65;;
12059;SDS011;6091;51.432;6.880;2023-02-01T13:50:53;0.90;;;0.70;;
12059;SDS011;6091;51.432;6.880;2023-02-01T13:53:34;0.75;;;0.50;;
12059;SDS011;6091;51.432;6.880;2023-02-01T13:56:11;1.50;;;0.80;;
12059;SDS011;6091;51.432;6.880;2023-02-01T13:58:50;0.95;;;0.65;;
12059;SDS011;6091;51.432;6.880;2023-02-01T14:03:55;1.33;;;0.90;;
12059;SDS011;6091;51.432;6.880;2023-02-01T14:19:22;0.70;;;0.60;;
12059;SDS011;6091;51.432;6.880;2023-02-01T14:21:54;0.32;;;0.30;;
12059;SDS011;6091;51.432;6.880;2023-02-01T14:24:32;0.47;;;0.47;;
12059;SDS011;6091;51.432;6.880;2023-02-01T14:27:01;0.60;;;0.57;;
12059;SDS011;6091;51.432;6.880;2023-02-01T14:29:51;1.00;;;0.60;;
12059;SDS011;6091;51.432;6.880;2023-02-01T14:32:31;0.50;;;0.50;;
12059;SDS011;6091;51.432;6.880;2023-02-01T14:35:17;0.70;;;0.70;;
12059;SDS011;6091;51.432;6.880;2023-02-01T14:37:54;0.60;;;0.50;;
12059;SDS011;6091;51.432;6.880;2023-02-01T14:40:35;1.02;;;0.70;;
12059;SDS011;6091;51.432;6.880;2023-02-01T14:43:03;0.55;;;0.55;;
12059;SDS011;6091;51.432;6.880;2023-02-01T14:59:00;0.70;;;0.50;;
12059;SDS011;6091;51.432;6.880;2023-02-01T15:01:37;0.57;;;0.57;;
12059;SDS011;6091;51.432;6.880;2023-02-01T15:04:18;1.02;;;0.52;;
12059;SDS011;6091;51.432;6.880;2023-02-01T15:09:32;0.60;;;0.50;;
12059;SDS011;6091;51.432;6.880;2023-02-01T15:15:02;0.95;;;0.50;;
12059;SDS011;6091;51.432;6.880;2023-02-01T15:17:55;0.60;;;0.40;;
12059;SDS011;6091;51.432;6.880;2023-02-01T15:20:32;1.33;;;0.55;;
12059;SDS011;6091;51.432;6.880;2023-02-01T15:23:01;0.50;;;0.40;;
12059;SDS011;6091;51.432;6.880;2023-02-01T15:25:37;0.77;;;0.50;;
12059;SDS011;6091;51.432;6.880;2023-02-01T15:28:05;0.68;;;0.50;;
12059;SDS011;6091;51.432;6.880;2023-02-01T15:30:51;0.60;;;0.60;;
12059;SDS011;6091;51.432;6.880;2023-02-01T15:33:29;0.55;;;0.40;;
12059;SDS011;6091;51.432;6.880;2023-02-01T15:36:19;0.77;;;0.50;;
12059;SDS011;6091;51.432;6.880;2023-02-01T15:38:50;0.40;;;0.40;;
12059;SDS011;6091;51.432;6.880;2023-02-01T15:42:00;0.50;;;0.40;;
12059;SDS011;6091;51.432;6.880;2023-02-01T15:44:44;0.43;;;0.43;;
12059;SDS011;6091;51.432;6.880;2023-02-01T15:47:17;0.60;;;0.50;;
12059;SDS011;6091;51.432;6.880;2023-02-01T15:49:52;0.60;;;0.52;;
12059;SDS011;6091;51.432;6.880;2023-02-01T15:52:34;1.17;;;0.47;;
12059;SDS011;6091;51.432;6.880;2023-02-01T15:55:08;0.40;;;0.40;;
12059;SDS011;6091;51.432;6.880;2023-02-01T15:57:47;0.70;;;0.40;;
12059;SDS011;6091;51.432;6.880;2023-02-01T16:00:18;0.50;;;0.40;;
12059;SDS011;6091;51.432;6.880;2023-02-01T16:02:58;0.40;;;0.40;;
12059;SDS011;6091;51.432;6.880;2023-02-01T16:05:32;0.40;;;0.40;;
12059;SDS011;6091;51.432;6.880;2023-02-01T16:10:44;0.40;;;0.32;;
12059;SDS011;6091;51.432;6.880;2023-02-01T16:13:16;0.30;;;0.30;;
12059;SDS011;6091;51.432;6.880;2023-02-01T16:15:45;0.45;;;0.40;;
12059;SDS011;6091;51.432;6.880;2023-02-01T16:18:13;0.50;;;0.50;;
12059;SDS011;6091;51.432;6.880;2023-02-01T16:20:44;1.02;;;0.40;;
12059;SDS011;6091;51.432;6.880;2023-02-01T16:23:14;0.30;;;0.30;;
12059;SDS011;6091;51.432;6.880;2023-02-01T16:25:41;0.85;;;0.50;;
12059;SDS011;6091;51.432;6.880;2023-02-01T16:28:09;0.52;;;0.47;;
12059;SDS011;6091;51.432;6.880;2023-02-01T16:30:39;0.73;;;0.40;;
12059;SDS011;6091;51.432;6.880;2023-02-01T16:33:06;0.47;;;0.47;;
12059;SDS011;6091;51.432;6.880;2023-02-01T16:35:45;0.20;;;0.20;;
12059;SDS011;6091;51.432;6.880;2023-02-01T16:38:14;0.40;;;0.40;;
12059;SDS011;6091;51.432;6.880;2023-02-01T16:40:45;0.30;;;0.30;;
12059;SDS011;6091;51.432;6.880;2023-02-01T16:43:24;0.30;;;0.30;;
12059;SDS011;6091;51.432;6.880;2023-02-01T16:45:53;0.40;;;0.40;;
12059;SDS011;6091;51.432;6.880;2023-02-01T16:48:26;0.40;;;0.32;;
12059;SDS011;6091;51.432;6.880;2023-02-01T16:51:01;0.47;;;0.47;;
12059;SDS011;6091;51.432;6.880;2023-02-01T16:53:44;0.32;;;0.30;;
12059;SDS011;6091;51.432;6.880;2023-02-01T16:56:21;0.30;;;0.30;;
12059;SDS011;6091;51.432;6.880;2023-02-01T16:58:54;0.63;;;0.50;;
12059;SDS011;6091;51.432;6.880;2023-02-01T17:01:22;0.60;;;0.50;;
12059;SDS011;6091;51.432;6.880;2023-02-01T17:03:51;0.60;;;0.50;;
12059;SDS011;6091;51.432;6.880;2023-02-01T17:06:19;0.45;;;0.35;;
12059;SDS011;6091;51.432;6.880;2023-02-01T17:08:59;0.75;;;0.40;;
12059;SDS011;6091;51.432;6.880;2023-02-01T17:11:29;0.68;;;0.50;;
12059;SDS011;6091;51.432;6.880;2023-02-01T17:14:01;0.50;;;0.50;;
12059;SDS011;6091;51.432;6.880;2023-02-01T17:16:48;0.30;;;0.30;;
12059;SDS011;6091;51.432;6.880;2023-02-01T17:19:17;0.45;;;0.40;;
12059;SDS011;6091;51.432;6.880;2023-02-01T17:21:53;0.40;;;0.40;;
12059;SDS011;6091;51.432;6.880;2023-02-01T17:24:26;1.80;;;0.40;;
12059;SDS011;6091;51.432;6.880;2023-02-01T17:27:13;0.95;;;0.57;;
12059;SDS011;6091;51.432;6.880;2023-02-01T17:29:42;4.43;;;1.08;;
12059;SDS011;6091;51.432;6.880;2023-02-01T17:32:16;1.85;;;0.57;;
12059;SDS011;6091;51.432;6.880;2023-02-01T17:34:49;1.63;;;0.60;;
12059;SDS011;6091;51.432;6.880;2023-02-01T17:37:26;1.15;;;0.70;;
12059;SDS011;6091;51.432;6.880;2023-02-01T17:40:00;1.92;;;0.77;;
12059;SDS011;6091;51.432;6.880;2023-02-01T17:42:28;2.78;;;0.60;;
12059;SDS011;6091;51.432;6.880;2023-02-01T17:45:00;4.22;;;0.70;;
12059;SDS011;6091;51.432;6.880;2023-02-01T17:47:44;2.75;;;0.88;;
12059;SDS011;6091;51.432;6.880;2023-02-01T17:50:13;1.30;;;0.70;;
12059;SDS011;6091;51.432;6.880;2023-02-01T17:52:40;1.85;;;0.70;;
12059;SDS011;6091;51.432;6.880;2023-02-01T17:55:18;0.82;;;0.70;;
12059;SDS011;6091;51.432;6.880;2023-02-01T17:57:51;2.05;;;0.70;;
12059;SDS011;6091;51.432;6.880;2023-02-01T18:00:18;2.83;;;0.88;;
12059;SDS011;6091;51.432;6.880;2023-02-01T18:02:49;1.38;;;0.80;;
12059;SDS011;6091;51.432;6.880;2023-02-01T18:05:20;4.13;;;0.90;;
12059;SDS011;6091;51.432;6.880;2023-02-01T18:08:03;1.77;;;0.73;;
12059;SDS011;6091;51.432;6.880;2023-02-01T18:10:37;2.15;;;0.60;;
12059;SDS011;6091;51.432;6.880;2023-02-01T18:13:05;3.60;;;1.00;;
12059;SDS011;6091;51.432;6.880;2023-02-01T18:15:32;1.58;;;1.10;;
12059;SDS011;6091;51.432;6.880;2023-02-01T18:18:00;3.08;;;1.23;;
12059;SDS011;6091;51.432;6.880;2023-02-01T18:20:27;3.40;;;0.93;;